sensor_id;sensor_type;location;lat;lon;timestamp;P1;durP1;ratioP1;P2;durP2;ratioP2
73084;SDS011;62974;49.460;10.892;2023-02-21T00:02:28;7.38;;;1.80;;
73084;SDS011;62974;49.460;10.892;2023-02-21T00:05:14;6.47;;;1.85;;
73084;SDS011;62974;49.460;10.892;2023-02-21T00:07:59;3.00;;;1.33;;
73084;SDS011;62974;49.460;10.892;2023-02-21T00:10:44;4.53;;;2.22;;
73084;SDS011;62974;49.460;10.892;2023-02-21T00:13:33;7.03;;;2.60;;
73084;SDS011;62974;49.460;10.892;2023-02-21T00:16:19;7.63;;;2.83;;
73084;SDS011;62974;49.460;10.892;2023-02-21T00:19:05;6.93;;;3.10;;
73084;SDS011;62974;49.460;10.892;2023-02-21T00:21:50;5.30;;;2.22;;
73084;SDS011;62974;49.460;10.892;2023-02-21T00:24:35;8.45;;;3.22;;
73084;SDS011;62974;49.460;10.892;2023-02-21T00:27:21;7.82;;;2.15;;
73084;SDS011;62974;49.460;10.892;2023-02-21T00:30:09;3.28;;;1.63;;
73084;SDS011;62974;49.460;10.892;2023-02-21T00:32:55;7.18;;;2.05;;
73084;SDS011;62974;49.460;10.892;2023-02-21T00:35:40;4.22;;;2.03;;
73084;SDS011;62974;49.460;10.892;2023-02-21T00:38:25;7.13;;;3.35;;
73084;SDS011;62974;49.460;10.892;2023-02-21T00:41:10;3.17;;;1.60;;
73084;SDS011;62974;49.460;10.892;2023-02-21T00:43:56;6.38;;;1.73;;
73084;SDS011;62974;49.460;10.892;2023-02-21T00:46:42;4.75;;;2.13;;
73084;SDS011;62974;49.460;10.892;2023-02-21T00:49:28;5.05;;;1.90;;
73084;SDS011;62974;49.460;10.892;2023-02-21T00:52:13;8.65;;;2.45;;
73084;SDS011;62974;49.460;10.892;2023-02-21T00:54:58;3.92;;;2.00;;
73084;SDS011;62974;49.460;10.892;2023-02-21T00:57:44;5.43;;;2.33;;
73084;SDS011;62974;49.460;10.892;2023-02-21T01:00:29;3.88;;;1.73;;
73084;SDS011;62974;49.460;10.892;2023-02-21T01:03:16;12.02;;;4.72;;
73084;SDS011;62974;49.460;10.892;2023-02-21T01:06:01;8.50;;;2.88;;
73084;SDS011;62974;49.460;10.892;2023-02-21T01:08:46;7.05;;;2.75;;
73084;SDS011;62974;49.460;10.892;2023-02-21T01:11:31;6.53;;;2.20;;
73084;SDS011;62974;49.460;10.892;2023-02-21T01:14:17;3.42;;;2.00;;
73084;SDS011;62974;49.460;10.892;2023-02-21T01:17:02;3.42;;;1.33;;
73084;SDS011;62974;49.460;10.892;2023-02-21T01:19:49;5.40;;;1.95;;
73084;SDS011;62974;49.460;10.892;2023-02-21T01:22:34;3.75;;;1.73;;
73084;SDS011;62974;49.460;10.892;2023-02-21T01:25:19;6.40;;;1.60;;
73084;SDS011;62974;49.460;10.892;2023-02-21T01:28:05;2.72;;;1.65;;
73084;SDS011;62974;49.460;10.892;2023-02-21T01:30:50;6.90;;;1.25;;
73084;SDS011;62974;49.460;10.892;2023-02-21T01:33:36;6.00;;;2.22;;
73084;SDS011;62974;49.460;10.892;2023-02-21T01:36:24;4.85;;;1.70;;
73084;SDS011;62974;49.460;10.892;2023-02-21T01:41:54;3.08;;;1.40;;
73084;SDS011;62974;49.460;10.892;2023-02-21T01:44:40;3.22;;;1.80;;
73084;SDS011;62974;49.460;10.892;2023-02-21T01:47:27;5.50;;;1.50;;
73084;SDS011;62974;49.460;10.892;2023-02-21T01:50:15;2.90;;;1.35;;
73084;SDS011;62974;49.460;10.892;2023-02-21T01:53:06;3.80;;;1.75;;
73084;SDS011;62974;49.460;10.892;2023-02-21T01:55:54;4.22;;;1.63;;
73084;SDS011;62974;49.460;10.892;2023-02-21T01:58:40;4.50;;;1.65;;
73084;SDS011;62974;49.460;10.892;2023-02-21T02:01:28;3.13;;;1.35;;
73084;SDS011;62974;49.460;10.892;2023-02-21T02:04:20;3.22;;;1.10;;
73084;SDS011;62974;49.460;10.892;2023-02-21T02:07:05;0.93;;;0.63;;
73084;SDS011;62974;49.460;10.892;2023-02-21T02:09:52;3.60;;;1.17;;
73084;SDS011;62974;49.460;10.892;2023-02-21T02:12:48;3.08;;;1.00;;
73084;SDS011;62974;49.460;10.892;2023-02-21T02:15:30;4.18;;;1.10;;
73084;SDS011;62974;49.460;10.892;2023-02-21T02:30:33;7.13;;;1.42;;
73084;SDS011;62974;49.460;10.892;2023-02-21T02:33:24;4.15;;;1.23;;
73084;SDS011;62974;49.460;10.892;2023-02-21T02:36:33;7.22;;;1.35;;
73084;SDS011;62974;49.460;10.892;2023-02-21T02:39:09;3.03;;;1.55;;
73084;SDS011;62974;49.460;10.892;2023-02-21T02:41:46;2.88;;;1.20;;
73084;SDS011;62974;49.460;10.892;2023-02-21T02:44:21;4.28;;;1.30;;
73084;SDS011;62974;49.460;10.892;2023-02-21T02:46:54;9.23;;;1.55;;
73084;SDS011;62974;49.460;10.892;2023-02-21T02:49:27;2.72;;;1.17;;
73084;SDS011;62974;49.460;10.892;2023-02-21T02:52:03;5.50;;;1.13;;
73084;SDS011;62974;49.460;10.892;2023-02-21T02:54:32;5.80;;;1.73;;
73084;SDS011;62974;49.460;10.892;2023-02-21T02:56:59;5.47;;;1.60;;
73084;SDS011;62974;49.460;10.892;2023-02-21T02:59:30;6.60;;;1.13;;
73084;SDS011;62974;49.460;10.892;2023-02-21T03:02:04;4.93;;;1.38;;
73084;SDS011;62974;49.460;10.892;2023-02-21T03:04:46;2.75;;;1.33;;
73084;SDS011;62974;49.460;10.892;2023-02-21T03:07:38;3.55;;;1.40;;
73084;SDS011;62974;49.460;10.892;2023-02-21T03:10:16;4.22;;;1.05;;
73084;SDS011;62974;49.460;10.892;2023-02-21T03:15:23;2.13;;;1.05;;
73084;SDS011;62974;49.460;10.892;2023-02-21T03:17:55;5.45;;;1.40;;
73084;SDS011;62974;49.460;10.892;2023-02-21T03:20:26;6.25;;;1.77;;
73084;SDS011;62974;49.460;10.892;2023-02-21T03:25:26;2.90;;;1.45;;
73084;SDS011;62974;49.460;10.892;2023-02-21T03:27:57;2.85;;;1.25;;
73084;SDS011;62974;49.460;10.892;2023-02-21T03:30:27;3.20;;;1.60;;
73084;SDS011;62974;49.460;10.892;2023-02-21T03:32:55;4.53;;;1.45;;
73084;SDS011;62974;49.460;10.892;2023-02-21T03:35:23;2.65;;;1.33;;
73084;SDS011;62974;49.460;10.892;2023-02-21T03:37:56;4.05;;;1.38;;
73084;SDS011;62974;49.460;10.892;2023-02-21T03:40:25;2.63;;;1.48;;
73084;SDS011;62974;49.460;10.892;2023-02-21T03:42:55;4.32;;;1.33;;
73084;SDS011;62974;49.460;10.892;2023-02-21T03:45:23;5.65;;;1.65;;
73084;SDS011;62974;49.460;10.892;2023-02-21T03:47:51;6.25;;;1.25;;
73084;SDS011;62974;49.460;10.892;2023-02-21T03:50:18;7.15;;;1.88;;
73084;SDS011;62974;49.460;10.892;2023-02-21T03:52:46;3.38;;;1.48;;
73084;SDS011;62974;49.460;10.892;2023-02-21T03:55:15;5.80;;;1.80;;
73084;SDS011;62974;49.460;10.892;2023-02-21T03:57:43;6.88;;;1.33;;
73084;SDS011;62974;49.460;10.892;2023-02-21T04:00:12;2.33;;;1.20;;
73084;SDS011;62974;49.460;10.892;2023-02-21T04:02:40;4.22;;;1.20;;
73084;SDS011;62974;49.460;10.892;2023-02-21T04:05:07;3.80;;;1.73;;
73084;SDS011;62974;49.460;10.892;2023-02-21T04:07:35;2.28;;;0.90;;
73084;SDS011;62974;49.460;10.892;2023-02-21T04:10:02;3.35;;;1.50;;
73084;SDS011;62974;49.460;10.892;2023-02-21T04:12:31;4.40;;;1.52;;
73084;SDS011;62974;49.460;10.892;2023-02-21T04:14:59;3.78;;;1.77;;
73084;SDS011;62974;49.460;10.892;2023-02-21T04:17:27;3.88;;;1.75;;
73084;SDS011;62974;49.460;10.892;2023-02-21T04:19:54;4.72;;;1.92;;
73084;SDS011;62974;49.460;10.892;2023-02-21T04:22:22;3.83;;;1.65;;
73084;SDS011;62974;49.460;10.892;2023-02-21T04:32:14;2.30;;;1.35;;
73084;SDS011;62974;49.460;10.892;2023-02-21T04:34:41;4.93;;;1.98;;
73084;SDS011;62974;49.460;10.892;2023-02-21T04:37:09;5.30;;;1.52;;
73084;SDS011;62974;49.460;10.892;2023-02-21T04:39:36;4.03;;;1.98;;
73084;SDS011;62974;49.460;10.892;2023-02-21T04:42:04;4.63;;;2.08;;
73084;SDS011;62974;49.460;10.892;2023-02-21T04:44:31;5.25;;;2.38;;
73084;SDS011;62974;49.460;10.892;2023-02-21T04:47:00;2.97;;;1.63;;
73084;SDS011;62974;49.460;10.892;2023-02-21T04:51:55;3.08;;;1.33;;
73084;SDS011;62974;49.460;10.892;2023-02-21T04:54:22;6.13;;;1.55;;
73084;SDS011;62974;49.460;10.892;2023-02-21T04:56:50;5.63;;;1.60;;
73084;SDS011;62974;49.460;10.892;2023-02-21T04:59:17;7.22;;;1.67;;
73084;SDS011;62974;49.460;10.892;2023-02-21T05:01:45;3.60;;;1.67;;
73084;SDS011;62974;49.460;10.892;2023-02-21T05:04:14;5.05;;;2.00;;
73084;SDS011;62974;49.460;10.892;2023-02-21T05:09:10;6.88;;;1.55;;
73084;SDS011;62974;49.460;10.892;2023-02-21T05:11:37;7.97;;;2.40;;
73084;SDS011;62974;49.460;10.892;2023-02-21T05:14:04;4.18;;;1.70;;
73084;SDS011;62974;49.460;10.892;2023-02-21T05:16:32;5.05;;;1.58;;
73084;SDS011;62974;49.460;10.892;2023-02-21T05:18:59;5.07;;;2.10;;
73084;SDS011;62974;49.460;10.892;2023-02-21T05:21:32;5.47;;;1.65;;
73084;SDS011;62974;49.460;10.892;2023-02-21T05:24:00;5.97;;;2.22;;
73084;SDS011;62974;49.460;10.892;2023-02-21T05:26:32;4.22;;;1.60;;
73084;SDS011;62974;49.460;10.892;2023-02-21T05:29:01;6.63;;;2.45;;
73084;SDS011;62974;49.460;10.892;2023-02-21T05:31:29;7.28;;;2.88;;
73084;SDS011;62974;49.460;10.892;2023-02-21T05:33:57;4.65;;;2.05;;
73084;SDS011;62974;49.460;10.892;2023-02-21T05:36:24;4.22;;;1.70;;
73084;SDS011;62974;49.460;10.892;2023-02-21T05:38:54;5.75;;;2.05;;
73084;SDS011;62974;49.460;10.892;2023-02-21T05:41:22;4.10;;;1.75;;
73084;SDS011;62974;49.460;10.892;2023-02-21T05:43:50;5.93;;;2.53;;
73084;SDS011;62974;49.460;10.892;2023-02-21T05:46:18;7.30;;;2.67;;
73084;SDS011;62974;49.460;10.892;2023-02-21T05:48:48;6.68;;;2.45;;
73084;SDS011;62974;49.460;10.892;2023-02-21T05:51:16;5.20;;;2.67;;
73084;SDS011;62974;49.460;10.892;2023-02-21T05:53:43;7.60;;;2.75;;
73084;SDS011;62974;49.460;10.892;2023-02-21T05:56:13;5.82;;;2.65;;
73084;SDS011;62974;49.460;10.892;2023-02-21T05:58:41;6.65;;;2.60;;
73084;SDS011;62974;49.460;10.892;2023-02-21T06:01:09;9.60;;;2.50;;
73084;SDS011;62974;49.460;10.892;2023-02-21T06:03:37;5.80;;;1.77;;
73084;SDS011;62974;49.460;10.892;2023-02-21T06:06:05;5.20;;;2.38;;
73084;SDS011;62974;49.460;10.892;2023-02-21T06:08:40;4.38;;;2.10;;
73084;SDS011;62974;49.460;10.892;2023-02-21T06:11:08;6.30;;;2.10;;
73084;SDS011;62974;49.460;10.892;2023-02-21T06:13:37;4.18;;;2.00;;
73084;SDS011;62974;49.460;10.892;2023-02-21T06:18:32;8.82;;;2.55;;
73084;SDS011;62974;49.460;10.892;2023-02-21T06:21:00;7.03;;;2.22;;
73084;SDS011;62974;49.460;10.892;2023-02-21T06:23:27;5.63;;;2.72;;
73084;SDS011;62974;49.460;10.892;2023-02-21T06:25:55;8.15;;;2.40;;
73084;SDS011;62974;49.460;10.892;2023-02-21T06:28:26;6.25;;;2.53;;
73084;SDS011;62974;49.460;10.892;2023-02-21T06:30:55;5.18;;;2.47;;
73084;SDS011;62974;49.460;10.892;2023-02-21T06:33:24;5.22;;;1.65;;
73084;SDS011;62974;49.460;10.892;2023-02-21T06:35:51;4.85;;;2.25;;
73084;SDS011;62974;49.460;10.892;2023-02-21T06:38:19;6.85;;;2.30;;
73084;SDS011;62974;49.460;10.892;2023-02-21T06:40:47;3.55;;;2.13;;
73084;SDS011;62974;49.460;10.892;2023-02-21T06:43:14;12.18;;;2.67;;
73084;SDS011;62974;49.460;10.892;2023-02-21T06:45:42;8.90;;;2.70;;
73084;SDS011;62974;49.460;10.892;2023-02-21T06:48:14;6.22;;;2.15;;
73084;SDS011;62974;49.460;10.892;2023-02-21T06:50:42;5.95;;;2.78;;
73084;SDS011;62974;49.460;10.892;2023-02-21T06:53:09;8.35;;;2.70;;
73084;SDS011;62974;49.460;10.892;2023-02-21T06:55:37;6.72;;;2.25;;
73084;SDS011;62974;49.460;10.892;2023-02-21T06:58:04;4.30;;;1.73;;
73084;SDS011;62974;49.460;10.892;2023-02-21T07:00:32;4.72;;;2.42;;
73084;SDS011;62974;49.460;10.892;2023-02-21T07:02:59;5.13;;;1.88;;
73084;SDS011;62974;49.460;10.892;2023-02-21T07:05:28;6.45;;;2.65;;
73084;SDS011;62974;49.460;10.892;2023-02-21T07:07:59;10.57;;;3.22;;
73084;SDS011;62974;49.460;10.892;2023-02-21T07:10:27;9.25;;;3.25;;
73084;SDS011;62974;49.460;10.892;2023-02-21T07:12:55;7.60;;;2.83;;
73084;SDS011;62974;49.460;10.892;2023-02-21T07:15:23;5.50;;;2.85;;
73084;SDS011;62974;49.460;10.892;2023-02-21T07:17:50;8.07;;;3.15;;
73084;SDS011;62974;49.460;10.892;2023-02-21T07:20:18;7.82;;;2.97;;
73084;SDS011;62974;49.460;10.892;2023-02-21T07:22:46;8.02;;;3.05;;
73084;SDS011;62974;49.460;10.892;2023-02-21T07:27:42;6.53;;;2.90;;
73084;SDS011;62974;49.460;10.892;2023-02-21T07:30:09;5.22;;;2.50;;
73084;SDS011;62974;49.460;10.892;2023-02-21T07:32:37;7.78;;;2.80;;
73084;SDS011;62974;49.460;10.892;2023-02-21T07:35:06;8.95;;;2.72;;
73084;SDS011;62974;49.460;10.892;2023-02-21T07:37:34;8.73;;;3.58;;
73084;SDS011;62974;49.460;10.892;2023-02-21T07:40:03;6.10;;;3.22;;
73084;SDS011;62974;49.460;10.892;2023-02-21T07:42:32;9.95;;;3.88;;
73084;SDS011;62974;49.460;10.892;2023-02-21T07:45:00;7.18;;;1.65;;
73084;SDS011;62974;49.460;10.892;2023-02-21T07:47:28;8.95;;;3.03;;
73084;SDS011;62974;49.460;10.892;2023-02-21T07:49:55;8.77;;;3.15;;
73084;SDS011;62974;49.460;10.892;2023-02-21T07:52:23;9.00;;;3.00;;
73084;SDS011;62974;49.460;10.892;2023-02-21T07:54:50;5.93;;;2.53;;
73084;SDS011;62974;49.460;10.892;2023-02-21T07:57:19;7.55;;;2.92;;
73084;SDS011;62974;49.460;10.892;2023-02-21T08:02:14;7.25;;;3.15;;
73084;SDS011;62974;49.460;10.892;2023-02-21T08:04:42;6.47;;;3.05;;
73084;SDS011;62974;49.460;10.892;2023-02-21T08:07:09;12.75;;;3.58;;
73084;SDS011;62974;49.460;10.892;2023-02-21T08:09:37;7.75;;;2.67;;
73084;SDS011;62974;49.460;10.892;2023-02-21T08:12:05;6.60;;;2.95;;
73084;SDS011;62974;49.460;10.892;2023-02-21T08:14:34;5.72;;;2.78;;
73084;SDS011;62974;49.460;10.892;2023-02-21T08:31:47;3.65;;;1.85;;
73084;SDS011;62974;49.460;10.892;2023-02-21T08:34:14;6.30;;;2.70;;
73084;SDS011;62974;49.460;10.892;2023-02-21T08:36:42;8.57;;;2.63;;
73084;SDS011;62974;49.460;10.892;2023-02-21T08:39:10;11.95;;;5.40;;
73084;SDS011;62974;49.460;10.892;2023-02-21T08:41:38;8.70;;;3.28;;
73084;SDS011;62974;49.460;10.892;2023-02-21T08:44:08;9.68;;;3.47;;
73084;SDS011;62974;49.460;10.892;2023-02-21T08:46:38;6.95;;;2.92;;
73084;SDS011;62974;49.460;10.892;2023-02-21T08:49:07;6.60;;;3.20;;
73084;SDS011;62974;49.460;10.892;2023-02-21T08:51:36;9.50;;;3.67;;
73084;SDS011;62974;49.460;10.892;2023-02-21T08:54:04;6.20;;;2.50;;
73084;SDS011;62974;49.460;10.892;2023-02-21T08:56:32;7.97;;;3.28;;
73084;SDS011;62974;49.460;10.892;2023-02-21T08:59:00;5.28;;;2.20;;
73084;SDS011;62974;49.460;10.892;2023-02-21T09:01:30;6.35;;;2.47;;
73084;SDS011;62974;49.460;10.892;2023-02-21T09:03:59;7.35;;;2.97;;
73084;SDS011;62974;49.460;10.892;2023-02-21T09:06:28;7.65;;;3.25;;
73084;SDS011;62974;49.460;10.892;2023-02-21T09:08:56;8.05;;;3.50;;
73084;SDS011;62974;49.460;10.892;2023-02-21T09:11:24;6.60;;;3.00;;
73084;SDS011;62974;49.460;10.892;2023-02-21T09:13:51;7.70;;;2.50;;
73084;SDS011;62974;49.460;10.892;2023-02-21T09:16:20;8.45;;;3.30;;
73084;SDS011;62974;49.460;10.892;2023-02-21T09:18:52;7.82;;;3.50;;
73084;SDS011;62974;49.460;10.892;2023-02-21T09:21:21;9.25;;;2.97;;
73084;SDS011;62974;49.460;10.892;2023-02-21T09:23:52;5.80;;;2.20;;
73084;SDS011;62974;49.460;10.892;2023-02-21T09:26:24;6.57;;;3.00;;
73084;SDS011;62974;49.460;10.892;2023-02-21T09:28:52;7.30;;;2.88;;
73084;SDS011;62974;49.460;10.892;2023-02-21T09:31:19;6.00;;;2.53;;
73084;SDS011;62974;49.460;10.892;2023-02-21T09:33:47;7.53;;;2.97;;
73084;SDS011;62974;49.460;10.892;2023-02-21T09:36:15;4.97;;;2.40;;
73084;SDS011;62974;49.460;10.892;2023-02-21T09:38:49;5.15;;;2.53;;
73084;SDS011;62974;49.460;10.892;2023-02-21T09:41:18;7.05;;;3.17;;
73084;SDS011;62974;49.460;10.892;2023-02-21T09:43:47;8.45;;;1.95;;
73084;SDS011;62974;49.460;10.892;2023-02-21T09:46:17;6.78;;;3.05;;
73084;SDS011;62974;49.460;10.892;2023-02-21T09:48:47;6.25;;;2.55;;
73084;SDS011;62974;49.460;10.892;2023-02-21T09:51:15;4.50;;;2.20;;
73084;SDS011;62974;49.460;10.892;2023-02-21T09:53:43;6.47;;;2.50;;
73084;SDS011;62974;49.460;10.892;2023-02-21T09:56:17;4.70;;;2.17;;
73084;SDS011;62974;49.460;10.892;2023-02-21T09:58:51;4.47;;;2.33;;
73084;SDS011;62974;49.460;10.892;2023-02-21T10:01:21;5.10;;;2.55;;
73084;SDS011;62974;49.460;10.892;2023-02-21T10:03:58;4.85;;;1.45;;
73084;SDS011;62974;49.460;10.892;2023-02-21T10:06:37;8.40;;;2.55;;
73084;SDS011;62974;49.460;10.892;2023-02-21T10:09:15;3.03;;;1.67;;
73084;SDS011;62974;49.460;10.892;2023-02-21T10:12:04;8.45;;;2.90;;
73084;SDS011;62974;49.460;10.892;2023-02-21T10:14:44;8.13;;;3.25;;
73084;SDS011;62974;49.460;10.892;2023-02-21T10:17:28;5.30;;;2.35;;
73084;SDS011;62974;49.460;10.892;2023-02-21T10:20:02;5.82;;;2.50;;
73084;SDS011;62974;49.460;10.892;2023-02-21T10:22:36;5.38;;;2.08;;
73084;SDS011;62974;49.460;10.892;2023-02-21T10:25:11;5.45;;;2.15;;
73084;SDS011;62974;49.460;10.892;2023-02-21T10:27:49;4.65;;;2.90;;
73084;SDS011;62974;49.460;10.892;2023-02-21T10:30:19;7.43;;;2.55;;
73084;SDS011;62974;49.460;10.892;2023-02-21T10:32:55;3.75;;;1.88;;
73084;SDS011;62974;49.460;10.892;2023-02-21T10:35:23;3.95;;;1.00;;
73084;SDS011;62974;49.460;10.892;2023-02-21T10:37:52;4.95;;;2.42;;
73084;SDS011;62974;49.460;10.892;2023-02-21T10:40:30;7.55;;;2.55;;
73084;SDS011;62974;49.460;10.892;2023-02-21T10:43:04;4.75;;;2.33;;
73084;SDS011;62974;49.460;10.892;2023-02-21T10:45:36;7.20;;;1.85;;
73084;SDS011;62974;49.460;10.892;2023-02-21T10:48:11;2.50;;;1.38;;
73084;SDS011;62974;49.460;10.892;2023-02-21T10:50:41;1.95;;;1.15;;
73084;SDS011;62974;49.460;10.892;2023-02-21T10:53:24;3.17;;;1.70;;
73084;SDS011;62974;49.460;10.892;2023-02-21T10:56:14;4.35;;;2.17;;
73084;SDS011;62974;49.460;10.892;2023-02-21T10:58:49;3.55;;;1.48;;
73084;SDS011;62974;49.460;10.892;2023-02-21T11:01:20;4.75;;;2.35;;
73084;SDS011;62974;49.460;10.892;2023-02-21T11:03:51;3.95;;;1.55;;
73084;SDS011;62974;49.460;10.892;2023-02-21T11:06:22;4.60;;;1.75;;
73084;SDS011;62974;49.460;10.892;2023-02-21T11:08:53;4.05;;;1.92;;
73084;SDS011;62974;49.460;10.892;2023-02-21T11:11:30;7.03;;;1.90;;
73084;SDS011;62974;49.460;10.892;2023-02-21T11:14:23;3.35;;;1.67;;
73084;SDS011;62974;49.460;10.892;2023-02-21T11:17:05;5.30;;;1.80;;
73084;SDS011;62974;49.460;10.892;2023-02-21T11:19:42;2.05;;;1.20;;
73084;SDS011;62974;49.460;10.892;2023-02-21T11:22:15;4.28;;;1.90;;
73084;SDS011;62974;49.460;10.892;2023-02-21T11:24:54;3.63;;;1.10;;
73084;SDS011;62974;49.460;10.892;2023-02-21T11:27:27;1.52;;;0.68;;
73084;SDS011;62974;49.460;10.892;2023-02-21T11:29:59;8.48;;;1.65;;
73084;SDS011;62974;49.460;10.892;2023-02-21T11:32:30;2.70;;;1.70;;
73084;SDS011;62974;49.460;10.892;2023-02-21T11:35:05;2.40;;;1.20;;
73084;SDS011;62974;49.460;10.892;2023-02-21T11:37:46;2.28;;;1.08;;
73084;SDS011;62974;49.460;10.892;2023-02-21T11:40:21;1.50;;;0.60;;
73084;SDS011;62974;49.460;10.892;2023-02-21T11:43:11;0.20;;;0.20;;
73084;SDS011;62974;49.460;10.892;2023-02-21T11:45:46;2.08;;;0.80;;
73084;SDS011;62974;49.460;10.892;2023-02-21T11:48:23;2.47;;;1.02;;
73084;SDS011;62974;49.460;10.892;2023-02-21T11:50:57;1.45;;;0.77;;
73084;SDS011;62974;49.460;10.892;2023-02-21T11:53:31;2.95;;;1.38;;
73084;SDS011;62974;49.460;10.892;2023-02-21T11:56:06;2.90;;;1.30;;
73084;SDS011;62974;49.460;10.892;2023-02-21T11:58:41;1.60;;;0.90;;
73084;SDS011;62974;49.460;10.892;2023-02-21T12:03:50;0.95;;;0.63;;
73084;SDS011;62974;49.460;10.892;2023-02-21T12:06:30;0.98;;;0.50;;
73084;SDS011;62974;49.460;10.892;2023-02-21T12:09:06;2.00;;;0.93;;
73084;SDS011;62974;49.460;10.892;2023-02-21T12:11:44;1.80;;;0.77;;
73084;SDS011;62974;49.460;10.892;2023-02-21T12:14:22;1.90;;;0.60;;
73084;SDS011;62974;49.460;10.892;2023-02-21T12:19:53;1.88;;;0.52;;
73084;SDS011;62974;49.460;10.892;2023-02-21T12:22:34;2.33;;;0.60;;
73084;SDS011;62974;49.460;10.892;2023-02-21T12:25:15;1.40;;;0.60;;
73084;SDS011;62974;49.460;10.892;2023-02-21T12:27:49;1.23;;;0.60;;
73084;SDS011;62974;49.460;10.892;2023-02-21T12:30:24;2.15;;;0.68;;
73084;SDS011;62974;49.460;10.892;2023-02-21T12:33:09;1.92;;;0.68;;
73084;SDS011;62974;49.460;10.892;2023-02-21T12:35:52;0.70;;;0.30;;
73084;SDS011;62974;49.460;10.892;2023-02-21T12:38:39;0.85;;;0.47;;
73084;SDS011;62974;49.460;10.892;2023-02-21T12:41:20;0.85;;;0.60;;
73084;SDS011;62974;49.460;10.892;2023-02-21T12:43:59;1.17;;;0.52;;
73084;SDS011;62974;49.460;10.892;2023-02-21T12:46:38;0.63;;;0.32;;
73084;SDS011;62974;49.460;10.892;2023-02-21T12:49:11;1.48;;;0.70;;
73084;SDS011;62974;49.460;10.892;2023-02-21T12:51:43;1.95;;;0.45;;
73084;SDS011;62974;49.460;10.892;2023-02-21T12:54:16;1.58;;;0.65;;
73084;SDS011;62974;49.460;10.892;2023-02-21T12:56:49;1.20;;;0.60;;
73084;SDS011;62974;49.460;10.892;2023-02-21T12:59:23;1.08;;;0.40;;
73084;SDS011;62974;49.460;10.892;2023-02-21T13:01:57;1.15;;;0.30;;
73084;SDS011;62974;49.460;10.892;2023-02-21T13:04:33;0.52;;;0.22;;
73084;SDS011;62974;49.460;10.892;2023-02-21T13:07:11;0.85;;;0.40;;
73084;SDS011;62974;49.460;10.892;2023-02-21T13:09:46;1.10;;;0.52;;
73084;SDS011;62974;49.460;10.892;2023-02-21T13:12:18;1.40;;;0.85;;
73084;SDS011;62974;49.460;10.892;2023-02-21T13:14:51;0.77;;;0.40;;
73084;SDS011;62974;49.460;10.892;2023-02-21T13:17:22;0.90;;;0.40;;
73084;SDS011;62974;49.460;10.892;2023-02-21T13:19:52;0.68;;;0.35;;
73084;SDS011;62974;49.460;10.892;2023-02-21T13:25:51;0.95;;;0.38;;
73084;SDS011;62974;49.460;10.892;2023-02-21T13:28:30;0.50;;;0.40;;
73084;SDS011;62974;49.460;10.892;2023-02-21T13:31:02;1.23;;;0.38;;
73084;SDS011;62974;49.460;10.892;2023-02-21T13:33:34;0.68;;;0.35;;
73084;SDS011;62974;49.460;10.892;2023-02-21T13:36:18;0.55;;;0.40;;
73084;SDS011;62974;49.460;10.892;2023-02-21T13:41:40;1.73;;;0.52;;
73084;SDS011;62974;49.460;10.892;2023-02-21T13:44:10;0.63;;;0.20;;
73084;SDS011;62974;49.460;10.892;2023-02-21T13:49:36;0.52;;;0.30;;
73084;SDS011;62974;49.460;10.892;2023-02-21T13:52:14;0.63;;;0.40;;
73084;SDS011;62974;49.460;10.892;2023-02-21T14:13:20;0.45;;;0.20;;
73084;SDS011;62974;49.460;10.892;2023-02-21T14:15:55;0.40;;;0.20;;
73084;SDS011;62974;49.460;10.892;2023-02-21T14:18:26;0.35;;;0.20;;
73084;SDS011;62974;49.460;10.892;2023-02-21T14:20:56;0.57;;;0.20;;
73084;SDS011;62974;49.460;10.892;2023-02-21T14:23:30;0.50;;;0.20;;
73084;SDS011;62974;49.460;10.892;2023-02-21T14:26:05;0.28;;;0.25;;
73084;SDS011;62974;49.460;10.892;2023-02-21T14:28:57;0.38;;;0.20;;
73084;SDS011;62974;49.460;10.892;2023-02-21T14:34:16;1.63;;;0.60;;
73084;SDS011;62974;49.460;10.892;2023-02-21T14:36:48;0.80;;;0.35;;
73084;SDS011;62974;49.460;10.892;2023-02-21T14:39:19;0.30;;;0.20;;
73084;SDS011;62974;49.460;10.892;2023-02-21T14:41:51;0.40;;;0.30;;
73084;SDS011;62974;49.460;10.892;2023-02-21T14:44:34;1.90;;;0.40;;
73084;SDS011;62974;49.460;10.892;2023-02-21T14:47:22;1.08;;;0.40;;
73084;SDS011;62974;49.460;10.892;2023-02-21T14:50:22;1.83;;;0.20;;
73084;SDS011;62974;49.460;10.892;2023-02-21T14:58:58;0.65;;;0.30;;
73084;SDS011;62974;49.460;10.892;2023-02-21T15:04:10;1.75;;;0.43;;
73084;SDS011;62974;49.460;10.892;2023-02-21T15:06:44;0.50;;;0.30;;
73084;SDS011;62974;49.460;10.892;2023-02-21T15:09:28;0.85;;;0.30;;
73084;SDS011;62974;49.460;10.892;2023-02-21T15:11:57;0.10;;;0.10;;
73084;SDS011;62974;49.460;10.892;2023-02-21T15:14:25;0.22;;;0.22;;
73084;SDS011;62974;49.460;10.892;2023-02-21T15:16:56;0.38;;;0.30;;
73084;SDS011;62974;49.460;10.892;2023-02-21T15:19:26;0.60;;;0.40;;
73084;SDS011;62974;49.460;10.892;2023-02-21T15:22:05;0.38;;;0.15;;
73084;SDS011;62974;49.460;10.892;2023-02-21T15:24:57;0.63;;;0.30;;
73084;SDS011;62974;49.460;10.892;2023-02-21T15:27:59;0.50;;;0.20;;
73084;SDS011;62974;49.460;10.892;2023-02-21T15:30:33;0.60;;;0.30;;
73084;SDS011;62974;49.460;10.892;2023-02-21T15:35:50;0.65;;;0.22;;
73084;SDS011;62974;49.460;10.892;2023-02-21T15:38:22;0.90;;;0.40;;
73084;SDS011;62974;49.460;10.892;2023-02-21T15:40:55;0.85;;;0.50;;
73084;SDS011;62974;49.460;10.892;2023-02-21T15:43:30;0.20;;;0.20;;
73084;SDS011;62974;49.460;10.892;2023-02-21T15:46:04;0.65;;;0.20;;
73084;SDS011;62974;49.460;10.892;2023-02-21T15:48:34;1.95;;;0.40;;
73084;SDS011;62974;49.460;10.892;2023-02-21T15:51:02;1.40;;;0.32;;
73084;SDS011;62974;49.460;10.892;2023-02-21T15:53:34;1.75;;;0.60;;
73084;SDS011;62974;49.460;10.892;2023-02-21T15:56:16;0.50;;;0.40;;
73084;SDS011;62974;49.460;10.892;2023-02-21T15:59:06;2.70;;;0.30;;
73084;SDS011;62974;49.460;10.892;2023-02-21T16:01:35;1.13;;;0.30;;
73084;SDS011;62974;49.460;10.892;2023-02-21T16:04:13;0.70;;;0.60;;
73084;SDS011;62974;49.460;10.892;2023-02-21T16:06:50;0.98;;;0.40;;
73084;SDS011;62974;49.460;10.892;2023-02-21T16:09:21;1.92;;;0.57;;
73084;SDS011;62974;49.460;10.892;2023-02-21T16:11:52;1.20;;;0.50;;
73084;SDS011;62974;49.460;10.892;2023-02-21T16:14:24;2.20;;;0.77;;
73084;SDS011;62974;49.460;10.892;2023-02-21T16:17:03;1.42;;;0.45;;
73084;SDS011;62974;49.460;10.892;2023-02-21T16:19:34;0.80;;;0.63;;
73084;SDS011;62974;49.460;10.892;2023-02-21T16:22:09;1.80;;;0.93;;
73084;SDS011;62974;49.460;10.892;2023-02-21T16:24:39;1.17;;;0.50;;
73084;SDS011;62974;49.460;10.892;2023-02-21T16:27:08;3.42;;;0.98;;
73084;SDS011;62974;49.460;10.892;2023-02-21T16:29:39;1.40;;;0.60;;
73084;SDS011;62974;49.460;10.892;2023-02-21T16:32:08;1.80;;;0.70;;
73084;SDS011;62974;49.460;10.892;2023-02-21T16:34:43;1.25;;;0.68;;
73084;SDS011;62974;49.460;10.892;2023-02-21T16:37:11;1.20;;;0.63;;
73084;SDS011;62974;49.460;10.892;2023-02-21T16:39:41;3.17;;;0.80;;
73084;SDS011;62974;49.460;10.892;2023-02-21T16:42:09;2.75;;;0.80;;
73084;SDS011;62974;49.460;10.892;2023-02-21T16:44:36;1.20;;;0.70;;
73084;SDS011;62974;49.460;10.892;2023-02-21T16:47:05;1.40;;;0.68;;
73084;SDS011;62974;49.460;10.892;2023-02-21T16:49:33;2.03;;;0.85;;
73084;SDS011;62974;49.460;10.892;2023-02-21T16:52:01;2.05;;;0.90;;
73084;SDS011;62974;49.460;10.892;2023-02-21T16:54:28;1.77;;;0.93;;
73084;SDS011;62974;49.460;10.892;2023-02-21T16:56:56;2.92;;;0.80;;